sensor_id;sensor_type;location;lat;lon;timestamp;pressure;altitude;pressure_sealevel;temperature;humidity
64544;BME280;50936;51.660;5.616;2024-01-11T00:00:20;102814.66;;;24.19;31.68
64544;BME280;50936;51.660;5.616;2024-01-11T00:03:07;102804.66;;;24.18;31.88
64544;BME280;50936;51.660;5.616;2024-01-11T00:05:54;102810.31;;;24.17;31.48
64544;BME280;50936;51.660;5.616;2024-01-11T00:08:43;102799.00;;;24.10;31.66
64544;BME280;50936;51.660;5.616;2024-01-11T00:11:30;102804.22;;;24.13;31.31
64544;BME280;50936;51.660;5.616;2024-01-11T00:14:17;102812.34;;;24.15;31.82
64544;BME280;50936;51.660;5.616;2024-01-11T00:17:04;102814.41;;;24.13;31.42
64544;BME280;50936;51.660;5.616;2024-01-11T00:19:52;102819.06;;;24.12;31.54
64544;BME280;50936;51.660;5.616;2024-01-11T00:22:39;102803.06;;;24.06;31.65
64544;BME280;50936;51.660;5.616;2024-01-11T00:25:26;102813.53;;;24.12;31.40
64544;BME280;50936;51.660;5.616;2024-01-11T00:28:14;102805.41;;;24.11;31.48
64544;BME280;50936;51.660;5.616;2024-01-11T00:31:01;102814.53;;;24.11;31.68
64544;BME280;50936;51.660;5.616;2024-01-11T00:33:48;102821.06;;;24.10;31.39
64544;BME280;50936;51.660;5.616;2024-01-11T00:36:35;102813.81;;;24.09;31.33
64544;BME280;50936;51.660;5.616;2024-01-11T00:39:23;102819.34;;;24.09;31.46
64544;BME280;50936;51.660;5.616;2024-01-11T00:42:11;102814.13;;;24.06;31.37
64544;BME280;50936;51.660;5.616;2024-01-11T00:44:58;102824.16;;;24.07;31.37
64544;BME280;50936;51.660;5.616;2024-01-11T00:47:45;102817.91;;;24.05;31.36
64544;BME280;50936;51.660;5.616;2024-01-11T00:50:32;102796.41;;;23.99;31.70
64544;BME280;50936;51.660;5.616;2024-01-11T00:53:20;102809.78;;;24.04;31.74
64544;BME280;50936;51.660;5.616;2024-01-11T00:56:21;102800.59;;;24.03;31.73
64544;BME280;50936;51.660;5.616;2024-01-11T00:59:08;102811.81;;;24.01;31.55
64544;BME280;50936;51.660;5.616;2024-01-11T01:01:55;102807.31;;;24.00;31.66
64544;BME280;50936;51.660;5.616;2024-01-11T01:04:43;102811.97;;;24.00;31.67
64544;BME280;50936;51.660;5.616;2024-01-11T01:07:30;102818.47;;;23.99;31.42
64544;BME280;50936;51.660;5.616;2024-01-11T01:10:17;102821.38;;;23.97;31.33
64544;BME280;50936;51.660;5.616;2024-01-11T01:13:05;102824.31;;;23.96;31.34
64544;BME280;50936;51.660;5.616;2024-01-11T01:15:52;102818.78;;;23.96;31.34
64544;BME280;50936;51.660;5.616;2024-01-11T01:18:40;102817.03;;;23.95;31.33
64544;BME280;50936;51.660;5.616;2024-01-11T01:21:27;102813.84;;;23.90;31.20
64544;BME280;50936;51.660;5.616;2024-01-11T01:24:15;102829.97;;;23.94;31.42
64544;BME280;50936;51.660;5.616;2024-01-11T01:27:02;102828.34;;;23.92;31.60
64544;BME280;50936;51.660;5.616;2024-01-11T01:29:49;102824.16;;;23.88;31.25
64544;BME280;50936;51.660;5.616;2024-01-11T01:32:36;102834.19;;;23.89;31.30
64544;BME280;50936;51.660;5.616;2024-01-11T01:35:24;102833.31;;;23.88;31.59
64544;BME280;50936;51.660;5.616;2024-01-11T01:38:12;102845.22;;;23.89;31.45
64544;BME280;50936;51.660;5.616;2024-01-11T01:40:59;102844.34;;;23.88;31.29
64544;BME280;50936;51.660;5.616;2024-01-11T01:43:46;102854.50;;;23.88;31.36
64544;BME280;50936;51.660;5.616;2024-01-11T01:46:34;102841.44;;;23.80;31.36
64544;BME280;50936;51.660;5.616;2024-01-11T01:49:21;102858.59;;;23.83;31.40
64544;BME280;50936;51.660;5.616;2024-01-11T01:52:10;102841.56;;;23.78;31.43
64544;BME280;50936;51.660;5.616;2024-01-11T01:55:02;102851.31;;;23.82;31.34
64544;BME280;50936;51.660;5.616;2024-01-11T01:57:50;102837.94;;;23.78;31.59
64544;BME280;50936;51.660;5.616;2024-01-11T02:00:39;102847.84;;;23.80;31.48
64544;BME280;50936;51.660;5.616;2024-01-11T02:03:29;102838.81;;;23.78;31.48
64544;BME280;50936;51.660;5.616;2024-01-11T02:06:18;102841.84;;;23.75;31.46
64544;BME280;50936;51.660;5.616;2024-01-11T02:09:11;102847.06;;;23.78;31.52
64544;BME280;50936;51.660;5.616;2024-01-11T02:12:00;102854.38;;;23.79;31.56
64544;BME280;50936;51.660;5.616;2024-01-11T02:14:48;102846.63;;;23.73;31.24
64544;BME280;50936;51.660;5.616;2024-01-11T02:17:35;102833.88;;;23.72;31.43
64544;BME280;50936;51.660;5.616;2024-01-11T02:20:23;102865.53;;;23.78;31.63
64544;BME280;50936;51.660;5.616;2024-01-11T02:23:16;102863.78;;;23.77;31.32
64544;BME280;50936;51.660;5.616;2024-01-11T02:26:06;102863.78;;;23.77;31.39
64544;BME280;50936;51.660;5.616;2024-01-11T02:28:53;102862.03;;;23.76;31.31
64544;BME280;50936;51.660;5.616;2024-01-11T02:31:41;102862.31;;;23.73;31.50
64544;BME280;50936;51.660;5.616;2024-01-11T02:34:28;102856.81;;;23.73;31.31
64544;BME280;50936;51.660;5.616;2024-01-11T02:37:17;102856.66;;;23.74;31.63
64544;BME280;50936;51.660;5.616;2024-01-11T02:40:08;102852.16;;;23.73;31.60
64544;BME280;50936;51.660;5.616;2024-01-11T02:42:56;102842.72;;;23.66;31.55
64544;BME280;50936;51.660;5.616;2024-01-11T02:45:43;102851.28;;;23.73;31.36
64544;BME280;50936;51.660;5.616;2024-01-11T02:48:31;102850.44;;;23.72;31.34
64544;BME280;50936;51.660;5.616;2024-01-11T02:51:18;102847.66;;;23.72;31.09
64544;BME280;50936;51.660;5.616;2024-01-11T02:54:05;102859.72;;;23.71;31.11
64544;BME280;50936;51.660;5.616;2024-01-11T02:56:53;102854.19;;;23.71;31.08
64544;BME280;50936;51.660;5.616;2024-01-11T02:59:41;102851.72;;;23.68;31.11
64544;BME280;50936;51.660;5.616;2024-01-11T03:02:29;102845.19;;;23.69;31.55
64544;BME280;50936;51.660;5.616;2024-01-11T03:05:17;102861.75;;;23.69;31.46
64544;BME280;50936;51.660;5.616;2024-01-11T03:08:04;102867.25;;;23.69;31.19
64544;BME280;50936;51.660;5.616;2024-01-11T03:10:51;102859.97;;;23.68;31.46
64544;BME280;50936;51.660;5.616;2024-01-11T03:13:39;102852.75;;;23.67;31.06
64544;BME280;50936;51.660;5.616;2024-01-11T03:16:26;102849.53;;;23.62;31.54
64544;BME280;50936;51.660;5.616;2024-01-11T03:19:13;102852.03;;;23.65;30.98
64544;BME280;50936;51.660;5.616;2024-01-11T03:22:00;102836.75;;;23.61;31.27
64544;BME280;50936;51.660;5.616;2024-01-11T03:24:52;102841.84;;;23.66;31.10
64544;BME280;50936;51.660;5.616;2024-01-11T03:27:40;102842.00;;;23.64;31.26
64544;BME280;50936;51.660;5.616;2024-01-11T03:30:28;102833.28;;;23.59;31.11
64544;BME280;50936;51.660;5.616;2024-01-11T03:33:15;102834.75;;;23.63;31.27
64544;BME280;50936;51.660;5.616;2024-01-11T03:36:10;102833.84;;;23.62;31.09
64544;BME280;50936;51.660;5.616;2024-01-11T03:38:58;102833.28;;;23.59;31.26
64544;BME280;50936;51.660;5.616;2024-01-11T03:41:45;102848.69;;;23.61;31.28
64544;BME280;50936;51.660;5.616;2024-01-11T03:44:32;102849.81;;;23.59;31.08
64544;BME280;50936;51.660;5.616;2024-01-11T03:47:20;102846.06;;;23.60;31.30
64544;BME280;50936;51.660;5.616;2024-01-11T03:50:07;102838.19;;;23.55;30.97
64544;BME280;50936;51.660;5.616;2024-01-11T03:52:55;102847.97;;;23.59;31.02
64544;BME280;50936;51.660;5.616;2024-01-11T03:55:42;102843.44;;;23.58;30.96
64544;BME280;50936;51.660;5.616;2024-01-11T03:58:29;102848.09;;;23.58;31.30
64544;BME280;50936;51.660;5.616;2024-01-11T04:01:17;102848.97;;;23.49;30.96
64544;BME280;50936;51.660;5.616;2024-01-11T04:04:04;102859.84;;;23.50;31.07
64544;BME280;50936;51.660;5.616;2024-01-11T04:06:51;102884.94;;;23.57;31.10
64544;BME280;50936;51.660;5.616;2024-01-11T04:09:39;102873.91;;;23.57;31.18
64544;BME280;50936;51.660;5.616;2024-01-11T04:12:26;102886.97;;;23.55;31.04
64544;BME280;50936;51.660;5.616;2024-01-11T04:15:13;102870.88;;;23.50;31.01
64544;BME280;50936;51.660;5.616;2024-01-11T04:18:01;102874.22;;;23.54;30.96
64544;BME280;50936;51.660;5.616;2024-01-11T04:20:49;102879.75;;;23.54;31.11
64544;BME280;50936;51.660;5.616;2024-01-11T04:23:36;102881.00;;;23.50;30.94
64544;BME280;50936;51.660;5.616;2024-01-11T04:26:23;102896.56;;;23.51;31.08
64544;BME280;50936;51.660;5.616;2024-01-11T04:29:10;102879.44;;;23.47;31.37
64544;BME280;50936;51.660;5.616;2024-01-11T04:31:58;102867.38;;;23.48;30.94
64544;BME280;50936;51.660;5.616;2024-01-11T04:34:45;102868.13;;;23.50;31.19
64544;BME280;50936;51.660;5.616;2024-01-11T04:37:33;102864.47;;;23.50;31.31
64544;BME280;50936;51.660;5.616;2024-01-11T04:40:22;102882.91;;;23.49;31.33
64544;BME280;50936;51.660;5.616;2024-01-11T04:43:09;102871.88;;;23.49;31.15
64544;BME280;50936;51.660;5.616;2024-01-11T04:45:57;102892.19;;;23.48;31.20
64544;BME280;50936;51.660;5.616;2024-01-11T04:48:45;102895.13;;;23.47;31.15
64544;BME280;50936;51.660;5.616;2024-01-11T04:51:33;102900.63;;;23.47;30.96
64544;BME280;50936;51.660;5.616;2024-01-11T04:54:20;102911.66;;;23.47;31.17
64544;BME280;50936;51.660;5.616;2024-01-11T04:57:07;102912.53;;;23.47;31.20
64544;BME280;50936;51.660;5.616;2024-01-11T04:59:54;102906.16;;;23.47;31.21
64544;BME280;50936;51.660;5.616;2024-01-11T05:02:42;102907.13;;;23.45;31.27
64544;BME280;50936;51.660;5.616;2024-01-11T05:05:30;102911.94;;;23.43;30.89
64544;BME280;50936;51.660;5.616;2024-01-11T05:08:17;102907.13;;;23.45;31.16
64544;BME280;50936;51.660;5.616;2024-01-11T05:11:04;102919.19;;;23.44;31.25
64544;BME280;50936;51.660;5.616;2024-01-11T05:13:52;102921.97;;;23.44;30.90
64544;BME280;50936;51.660;5.616;2024-01-11T05:16:39;102921.19;;;23.42;31.32
64544;BME280;50936;51.660;5.616;2024-01-11T05:19:28;102919.47;;;23.41;31.19
64544;BME280;50936;51.660;5.616;2024-01-11T05:22:15;102906.22;;;23.35;31.34
64544;BME280;50936;51.660;5.616;2024-01-11T05:25:02;102913.50;;;23.36;31.01
64544;BME280;50936;51.660;5.616;2024-01-11T05:27:50;102914.50;;;23.35;31.14
64544;BME280;50936;51.660;5.616;2024-01-11T05:30:37;102925.97;;;23.40;31.20
64544;BME280;50936;51.660;5.616;2024-01-11T05:33:24;102917.00;;;23.38;31.11
64544;BME280;50936;51.660;5.616;2024-01-11T05:36:12;102909.16;;;23.34;31.11
64544;BME280;50936;51.660;5.616;2024-01-11T05:38:59;102917.72;;;23.40;30.82
64544;BME280;50936;51.660;5.616;2024-01-11T05:41:46;102911.47;;;23.38;31.03
64544;BME280;50936;51.660;5.616;2024-01-11T05:44:33;102910.03;;;23.34;31.08
64544;BME280;50936;51.660;5.616;2024-01-11T05:47:21;102927.28;;;23.36;31.23
64544;BME280;50936;51.660;5.616;2024-01-11T05:50:08;102921.19;;;23.33;30.79
64544;BME280;50936;51.660;5.616;2024-01-11T05:52:56;102937.47;;;23.36;30.91
64544;BME280;50936;51.660;5.616;2024-01-11T05:55:43;102943.84;;;23.36;30.99
64544;BME280;50936;51.660;5.616;2024-01-11T05:58:31;102947.59;;;23.35;31.08
64544;BME280;50936;51.660;5.616;2024-01-11T06:01:18;102948.63;;;23.34;30.90
64544;BME280;50936;51.660;5.616;2024-01-11T06:04:05;102943.09;;;23.34;30.85
64544;BME280;50936;51.660;5.616;2024-01-11T06:06:52;102936.88;;;23.32;31.25
64544;BME280;50936;51.660;5.616;2024-01-11T06:09:40;102939.47;;;23.34;30.84
64544;BME280;50936;51.660;5.616;2024-01-11T06:12:27;102945.84;;;23.34;31.18
64544;BME280;50936;51.660;5.616;2024-01-11T06:15:14;102944.09;;;23.33;31.04
64544;BME280;50936;51.660;5.616;2024-01-11T06:18:02;102948.88;;;23.31;30.98
64544;BME280;50936;51.660;5.616;2024-01-11T06:20:49;102943.81;;;23.27;31.14
64544;BME280;50936;51.660;5.616;2024-01-11T06:23:37;102929.59;;;23.31;30.74
64544;BME280;50936;51.660;5.616;2024-01-11T06:26:24;102935.41;;;23.28;31.10
64544;BME280;50936;51.660;5.616;2024-01-11T06:29:12;102942.91;;;23.26;31.11
64544;BME280;50936;51.660;5.616;2024-01-11T06:31:59;102939.88;;;23.29;30.75
64544;BME280;50936;51.660;5.616;2024-01-11T06:34:46;102942.19;;;23.24;30.85
64544;BME280;50936;51.660;5.616;2024-01-11T06:37:34;102952.94;;;23.27;30.90
64544;BME280;50936;51.660;5.616;2024-01-11T06:40:21;102957.47;;;23.28;31.20
64544;BME280;50936;51.660;5.616;2024-01-11T06:43:09;102956.56;;;23.28;31.15
64544;BME280;50936;51.660;5.616;2024-01-11T06:45:56;102957.00;;;23.23;31.24
64544;BME280;50936;51.660;5.616;2024-01-11T06:48:43;102955.97;;;23.24;31.24
64544;BME280;50936;51.660;5.616;2024-01-11T06:51:30;102962.97;;;23.28;31.22
64544;BME280;50936;51.660;5.616;2024-01-11T06:54:18;102964.69;;;23.29;30.89
64544;BME280;50936;51.660;5.616;2024-01-11T06:57:05;102976.59;;;23.30;31.17
64544;BME280;50936;51.660;5.616;2024-01-11T06:59:52;102998.03;;;23.26;31.00
64544;BME280;50936;51.660;5.616;2024-01-11T07:02:40;103014.06;;;23.32;31.16
64544;BME280;50936;51.660;5.616;2024-01-11T07:05:28;103008.53;;;23.32;31.35
64544;BME280;50936;51.660;5.616;2024-01-11T07:08:16;103002.72;;;23.35;31.27
64544;BME280;50936;51.660;5.616;2024-01-11T07:11:04;102984.19;;;23.37;31.44
64544;BME280;50936;51.660;5.616;2024-01-11T07:13:51;102984.47;;;23.34;31.20
64544;BME280;50936;51.660;5.616;2024-01-11T07:16:38;102990.56;;;23.38;31.21
64544;BME280;50936;51.660;5.616;2024-01-11T07:19:26;103002.19;;;23.41;31.24
64544;BME280;50936;51.660;5.616;2024-01-11T07:22:13;103012.19;;;23.42;31.56
64544;BME280;50936;51.660;5.616;2024-01-11T07:25:00;103008.44;;;23.43;31.38
64544;BME280;50936;51.660;5.616;2024-01-11T07:27:47;102999.31;;;23.43;31.25
64544;BME280;50936;51.660;5.616;2024-01-11T07:30:35;102993.19;;;23.39;31.16
64544;BME280;50936;51.660;5.616;2024-01-11T07:33:22;103001.94;;;23.44;31.48
64544;BME280;50936;51.660;5.616;2024-01-11T07:36:10;103009.16;;;23.45;31.72
64544;BME280;50936;51.660;5.616;2024-01-11T07:38:57;103011.78;;;23.47;31.68
64544;BME280;50936;51.660;5.616;2024-01-11T07:41:44;103021.97;;;23.47;31.64
64544;BME280;50936;51.660;5.616;2024-01-11T07:44:33;103019.94;;;23.49;31.53
64544;BME280;50936;51.660;5.616;2024-01-11T07:47:20;103018.91;;;23.50;31.67
64544;BME280;50936;51.660;5.616;2024-01-11T07:50:09;103006.88;;;23.51;31.75
64544;BME280;50936;51.660;5.616;2024-01-11T07:52:59;102992.06;;;23.52;31.53
64544;BME280;50936;51.660;5.616;2024-01-11T07:55:46;102996.56;;;23.53;31.52
64544;BME280;50936;51.660;5.616;2024-01-11T07:58:34;102995.56;;;23.54;31.80
64544;BME280;50936;51.660;5.616;2024-01-11T08:01:24;102972.63;;;23.53;31.80
64544;BME280;50936;51.660;5.616;2024-01-11T08:04:11;102977.00;;;23.56;31.81
64544;BME280;50936;51.660;5.616;2024-01-11T08:06:59;102980.47;;;23.58;31.35
64544;BME280;50936;51.660;5.616;2024-01-11T08:09:46;102980.47;;;23.58;31.76
64544;BME280;50936;51.660;5.616;2024-01-11T08:12:33;102980.47;;;23.58;31.50
64544;BME280;50936;51.660;5.616;2024-01-11T08:15:21;102987.72;;;23.59;31.70
64544;BME280;50936;51.660;5.616;2024-01-11T08:18:08;102998.75;;;23.59;31.53
64544;BME280;50936;51.660;5.616;2024-01-11T08:20:55;102993.09;;;23.60;31.56
64544;BME280;50936;51.660;5.616;2024-01-11T08:23:43;102982.50;;;23.56;31.54
64544;BME280;50936;51.660;5.616;2024-01-11T08:26:36;103000.25;;;23.63;31.48
64544;BME280;50936;51.660;5.616;2024-01-11T08:29:23;102985.69;;;23.61;31.56
64544;BME280;50936;51.660;5.616;2024-01-11T08:32:10;102989.22;;;23.63;31.49
64544;BME280;50936;51.660;5.616;2024-01-11T08:35:14;102983.38;;;23.66;31.43
64544;BME280;50936;51.660;5.616;2024-01-11T08:38:02;102985.28;;;23.66;31.88
64544;BME280;50936;51.660;5.616;2024-01-11T08:40:50;102992.56;;;23.67;31.59
64544;BME280;50936;51.660;5.616;2024-01-11T08:43:38;103001.09;;;23.63;31.97
64544;BME280;50936;51.660;5.616;2024-01-11T08:46:26;102997.97;;;23.78;31.57
64544;BME280;50936;51.660;5.616;2024-01-11T08:49:14;102998.81;;;23.78;31.78
64544;BME280;50936;51.660;5.616;2024-01-11T08:52:01;103001.94;;;23.95;32.34
64544;BME280;50936;51.660;5.616;2024-01-11T08:54:49;102981.78;;;24.24;31.88
64544;BME280;50936;51.660;5.616;2024-01-11T08:57:36;102995.16;;;24.57;31.30
64544;BME280;50936;51.660;5.616;2024-01-11T09:00:24;102989.59;;;24.67;30.96
64544;BME280;50936;51.660;5.616;2024-01-11T09:03:11;103006.47;;;24.74;30.77
64544;BME280;50936;51.660;5.616;2024-01-11T09:06:02;103009.97;;;24.76;30.55
64544;BME280;50936;51.660;5.616;2024-01-11T09:08:50;103009.66;;;24.79;30.64
64544;BME280;50936;51.660;5.616;2024-01-11T09:11:37;103030.59;;;24.82;30.67
64544;BME280;50936;51.660;5.616;2024-01-11T09:14:24;103023.63;;;24.77;30.57
64544;BME280;50936;51.660;5.616;2024-01-11T09:17:11;103034.97;;;24.84;30.75
64544;BME280;50936;51.660;5.616;2024-01-11T09:19:59;103041.50;;;24.83;30.58
64544;BME280;50936;51.660;5.616;2024-01-11T09:22:47;103042.22;;;24.85;30.69
64544;BME280;50936;51.660;5.616;2024-01-11T09:25:34;103033.22;;;24.83;30.58
64544;BME280;50936;51.660;5.616;2024-01-11T09:28:21;103043.13;;;24.86;30.66
64544;BME280;50936;51.660;5.616;2024-01-11T09:31:09;103049.22;;;24.89;30.36
64544;BME280;50936;51.660;5.616;2024-01-11T09:33:56;103047.75;;;24.85;30.87
64544;BME280;50936;51.660;5.616;2024-01-11T09:36:44;103063.44;;;24.94;30.63
64544;BME280;50936;51.660;5.616;2024-01-11T09:39:31;103056.19;;;24.93;30.35
64544;BME280;50936;51.660;5.616;2024-01-11T09:42:19;103046.28;;;24.91;30.39
64544;BME280;50936;51.660;5.616;2024-01-11T09:45:12;103067.38;;;25.02;30.33
64544;BME280;50936;51.660;5.616;2024-01-11T09:48:00;103074.22;;;24.97;30.19
64544;BME280;50936;51.660;5.616;2024-01-11T09:50:50;103072.47;;;24.96;30.60
64544;BME280;50936;51.660;5.616;2024-01-11T09:53:40;103067.66;;;25.28;30.22
64544;BME280;50936;51.660;5.616;2024-01-11T09:56:29;103062.88;;;25.01;30.16
64544;BME280;50936;51.660;5.616;2024-01-11T09:59:18;103059.41;;;24.98;30.48
64544;BME280;50936;51.660;5.616;2024-01-11T10:02:10;103062.44;;;24.95;29.97
64544;BME280;50936;51.660;5.616;2024-01-11T10:04:59;103072.19;;;25.00;30.23
64544;BME280;50936;51.660;5.616;2024-01-11T10:07:46;103070.44;;;24.98;29.94
64544;BME280;50936;51.660;5.616;2024-01-11T10:10:33;103080.31;;;25.01;30.09
64544;BME280;50936;51.660;5.616;2024-01-11T10:13:28;103077.41;;;25.03;30.27
64544;BME280;50936;51.660;5.616;2024-01-11T10:16:16;103090.81;;;24.97;30.30
64544;BME280;50936;51.660;5.616;2024-01-11T10:19:03;103103.03;;;25.05;30.08
64544;BME280;50936;51.660;5.616;2024-01-11T10:21:51;103105.63;;;25.06;29.90
64544;BME280;50936;51.660;5.616;2024-01-11T10:24:39;103100.97;;;25.07;30.09
64544;BME280;50936;51.660;5.616;2024-01-11T10:27:26;103085.56;;;25.04;30.10
64544;BME280;50936;51.660;5.616;2024-01-11T10:30:15;103098.94;;;25.09;29.88
64544;BME280;50936;51.660;5.616;2024-01-11T10:33:04;103095.16;;;25.10;30.08
64544;BME280;50936;51.660;5.616;2024-01-11T10:35:54;103094.84;;;25.13;30.05
64544;BME280;50936;51.660;5.616;2024-01-11T10:38:43;103093.13;;;25.12;30.13
64544;BME280;50936;51.660;5.616;2024-01-11T10:41:39;103096.00;;;25.20;30.06
64544;BME280;50936;51.660;5.616;2024-01-11T10:44:33;103085.25;;;25.17;30.02
64544;BME280;50936;51.660;5.616;2024-01-11T10:47:24;103079.00;;;25.15;29.97
64544;BME280;50936;51.660;5.616;2024-01-11T10:50:17;103077.97;;;25.16;29.70
64544;BME280;50936;51.660;5.616;2024-01-11T10:53:16;103083.22;;;25.19;29.87
64544;BME280;50936;51.660;5.616;2024-01-11T10:56:12;103094.25;;;25.19;30.13
64544;BME280;50936;51.660;5.616;2024-01-11T10:59:01;103082.50;;;25.17;30.12
64544;BME280;50936;51.660;5.616;2024-01-11T11:01:53;103082.34;;;25.19;29.91
64544;BME280;50936;51.660;5.616;2024-01-11T11:04:45;103088.72;;;25.19;29.93
64544;BME280;50936;51.660;5.616;2024-01-11T11:07:34;103099.78;;;25.19;29.86
64544;BME280;50936;51.660;5.616;2024-01-11T11:10:22;103093.84;;;25.14;29.91
64544;BME280;50936;51.660;5.616;2024-01-11T11:13:09;103097.75;;;25.21;30.19
64544;BME280;50936;51.660;5.616;2024-01-11T11:15:58;103101.53;;;25.20;30.01
64544;BME280;50936;51.660;5.616;2024-01-11T11:18:52;103101.53;;;25.20;30.14
64544;BME280;50936;51.660;5.616;2024-01-11T11:21:42;103084.53;;;25.15;30.03
64544;BME280;50936;51.660;5.616;2024-01-11T11:24:34;103096.72;;;25.22;29.93
64544;BME280;50936;51.660;5.616;2024-01-11T11:27:22;103104.00;;;25.23;29.93
64544;BME280;50936;51.660;5.616;2024-01-11T11:30:09;103108.81;;;25.21;30.01
64544;BME280;50936;51.660;5.616;2024-01-11T11:32:57;103103.28;;;25.21;30.21
64544;BME280;50936;51.660;5.616;2024-01-11T11:35:57;103107.06;;;25.20;29.87
64544;BME280;50936;51.660;5.616;2024-01-11T11:38:45;103112.59;;;25.20;30.19
64544;BME280;50936;51.660;5.616;2024-01-11T11:41:32;103116.38;;;25.19;29.99
64544;BME280;50936;51.660;5.616;2024-01-11T11:44:20;103113.19;;;25.14;30.10
64544;BME280;50936;51.660;5.616;2024-01-11T11:47:20;103135.59;;;25.30;29.98
64544;BME280;50936;51.660;5.616;2024-01-11T11:50:11;103129.19;;;25.20;30.02
64544;BME280;50936;51.660;5.616;2024-01-11T11:52:58;103119.44;;;25.16;29.79
64544;BME280;50936;51.660;5.616;2024-01-11T11:55:46;103118.13;;;25.20;29.81
64544;BME280;50936;51.660;5.616;2024-01-11T11:58:34;103110.28;;;25.15;29.93
64544;BME280;50936;51.660;5.616;2024-01-11T12:01:21;103108.97;;;25.20;30.02
64544;BME280;50936;51.660;5.616;2024-01-11T12:04:09;103119.00;;;25.21;30.26
64544;BME280;50936;51.660;5.616;2024-01-11T12:06:56;103106.19;;;25.20;30.14
64544;BME280;50936;51.660;5.616;2024-01-11T12:09:44;103111.56;;;25.21;30.07
64544;BME280;50936;51.660;5.616;2024-01-11T12:12:37;103101.13;;;25.25;29.78
64544;BME280;50936;51.660;5.616;2024-01-11T12:15:27;103092.22;;;25.21;29.93
64544;BME280;50936;51.660;5.616;2024-01-11T12:18:15;103086.69;;;25.21;29.84
64544;BME280;50936;51.660;5.616;2024-01-11T12:21:03;103081.16;;;25.21;30.20
64544;BME280;50936;51.660;5.616;2024-01-11T12:23:50;103088.41;;;25.22;29.98
64544;BME280;50936;51.660;5.616;2024-01-11T12:26:38;103081.16;;;25.21;30.12
64544;BME280;50936;51.660;5.616;2024-01-11T12:29:28;103079.72;;;25.17;29.86
64544;BME280;50936;51.660;5.616;2024-01-11T12:32:29;103081.00;;;25.23;29.72
64544;BME280;50936;51.660;5.616;2024-01-11T12:35:17;103086.69;;;25.21;29.99
64544;BME280;50936;51.660;5.616;2024-01-11T12:38:05;103080.44;;;25.19;30.09
64544;BME280;50936;51.660;5.616;2024-01-11T12:40:53;103086.69;;;25.21;29.93
64544;BME280;50936;51.660;5.616;2024-01-11T12:43:40;103084.94;;;25.20;30.11
64544;BME280;50936;51.660;5.616;2024-01-11T12:46:28;103077.53;;;25.21;30.01
64544;BME280;50936;51.660;5.616;2024-01-11T12:49:15;103073.47;;;25.15;29.86
64544;BME280;50936;51.660;5.616;2024-01-11T12:52:03;103067.47;;;25.20;29.91
64544;BME280;50936;51.660;5.616;2024-01-11T12:54:54;103084.78;;;25.22;30.10
64544;BME280;50936;51.660;5.616;2024-01-11T12:57:43;103080.28;;;25.21;30.19
64544;BME280;50936;51.660;5.616;2024-01-11T13:00:31;103086.97;;;25.18;29.72
64544;BME280;50936;51.660;5.616;2024-01-11T13:03:19;103080.44;;;25.19;30.13
64544;BME280;50936;51.660;5.616;2024-01-11T13:06:10;103077.69;;;25.19;30.15
64544;BME280;50936;51.660;5.616;2024-01-11T13:08:59;103067.19;;;25.13;29.91
64544;BME280;50936;51.660;5.616;2024-01-11T13:11:46;103077.81;;;25.17;30.04
64544;BME280;50936;51.660;5.616;2024-01-11T13:14:33;103069.25;;;25.11;29.90
64544;BME280;50936;51.660;5.616;2024-01-11T13:17:20;103074.75;;;25.11;29.83
64544;BME280;50936;51.660;5.616;2024-01-11T13:20:08;103081.78;;;25.15;30.13
64544;BME280;50936;51.660;5.616;2024-01-11T13:26:05;103059.94;;;25.12;30.16
64544;BME280;50936;51.660;5.616;2024-01-11T13:28:53;103063.13;;;25.17;30.16
64544;BME280;50936;51.660;5.616;2024-01-11T13:31:40;103073.47;;;25.15;30.32
64544;BME280;50936;51.660;5.616;2024-01-11T13:34:28;103085.53;;;25.14;30.35
64544;BME280;50936;51.660;5.616;2024-01-11T13:37:15;103072.72;;;25.13;29.95
64544;BME280;50936;51.660;5.616;2024-01-11T13:40:03;103065.47;;;25.12;30.35
64544;BME280;50936;51.660;5.616;2024-01-11T13:42:50;103061.25;;;25.08;29.92
64544;BME280;50936;51.660;5.616;2024-01-11T13:45:37;103068.22;;;25.12;29.90
64544;BME280;50936;51.660;5.616;2024-01-11T13:48:25;103070.13;;;25.11;30.01
64544;BME280;50936;51.660;5.616;2024-01-11T13:51:13;103081.34;;;25.10;30.35
64544;BME280;50936;51.660;5.616;2024-01-11T13:54:02;103078.56;;;25.10;30.13
64544;BME280;50936;51.660;5.616;2024-01-11T13:56:50;103080.63;;;25.08;30.51
64544;BME280;50936;51.660;5.616;2024-01-11T13:59:40;103079.44;;;25.10;30.13
64544;BME280;50936;51.660;5.616;2024-01-11T14:02:28;103070.13;;;25.11;30.52
64544;BME280;50936;51.660;5.616;2024-01-11T14:05:15;103060.94;;;25.11;30.34
64544;BME280;50936;51.660;5.616;2024-01-11T14:08:05;103056.75;;;25.07;30.34
64544;BME280;50936;51.660;5.616;2024-01-11T14:10:54;103067.19;;;25.13;30.25
64544;BME280;50936;51.660;5.616;2024-01-11T14:13:41;103056.13;;;25.13;30.02
64544;BME280;50936;51.660;5.616;2024-01-11T14:16:29;103057.03;;;25.13;30.16
64544;BME280;50936;51.660;5.616;2024-01-11T14:19:17;103048.88;;;25.12;30.47
64544;BME280;50936;51.660;5.616;2024-01-11T14:22:04;103047.84;;;25.13;30.20
64544;BME280;50936;51.660;5.616;2024-01-11T14:24:52;103030.84;;;25.08;30.40
64544;BME280;50936;51.660;5.616;2024-01-11T14:27:39;103040.59;;;25.12;30.13
64544;BME280;50936;51.660;5.616;2024-01-11T14:30:27;103042.31;;;25.13;30.13
64544;BME280;50936;51.660;5.616;2024-01-11T14:33:14;103033.44;;;25.09;30.11
64544;BME280;50936;51.660;5.616;2024-01-11T14:36:02;103042.16;;;25.14;30.34
64544;BME280;50936;51.660;5.616;2024-01-11T14:38:50;103021.53;;;25.09;30.21
64544;BME280;50936;51.660;5.616;2024-01-11T14:41:37;103025.16;;;25.09;30.33